createdAt,value
2019-05-23T00:01:19.288Z,9.25
2019-05-23T00:03:52.298Z,9.43
2019-05-23T00:06:23.861Z,11.48
2019-05-23T00:08:52.926Z,10.82
2019-05-23T00:11:41.059Z,8.73
2019-05-23T00:14:38.550Z,8.40
2019-05-23T00:17:11.783Z,8.23
2019-05-23T00:19:40.922Z,10.00
2019-05-23T00:22:11.518Z,9.00
2019-05-23T00:24:42.906Z,9.28
2019-05-23T00:27:13.531Z,10.13
2019-05-23T00:29:44.275Z,8.93
2019-05-23T00:32:22.678Z,8.28
2019-05-23T00:34:52.764Z,8.50
2019-05-23T00:37:24.067Z,7.87
2019-05-23T00:39:54.504Z,7.28
2019-05-23T00:42:23.027Z,8.48
2019-05-23T00:44:52.273Z,10.82
2019-05-23T00:47:21.216Z,9.78
2019-05-23T00:49:50.307Z,7.30
2019-05-23T00:52:20.073Z,8.53
2019-05-23T00:54:50.031Z,8.90
2019-05-23T00:57:18.853Z,8.13
2019-05-23T00:59:48.994Z,8.88
2019-05-23T01:02:18.201Z,8.90
2019-05-23T01:04:47.505Z,12.65
2019-05-23T01:07:17.048Z,8.15
2019-05-23T01:09:46.588Z,9.75
2019-05-23T01:12:17.308Z,10.58
2019-05-23T01:14:47.114Z,8.20
2019-05-23T01:17:17.536Z,10.03
2019-05-23T01:19:46.953Z,8.85
2019-05-23T01:22:16.851Z,9.33
2019-05-23T01:24:47.311Z,8.88
2019-05-23T01:27:17.202Z,9.43
2019-05-23T01:29:50.155Z,9.95
2019-05-23T01:32:19.850Z,10.03
2019-05-23T01:34:49.324Z,8.83
2019-05-23T01:37:18.848Z,10.35
2019-05-23T01:39:47.926Z,8.03
2019-05-23T01:42:17.520Z,10.28
2019-05-23T01:44:47.650Z,9.83
2019-05-23T01:47:17.400Z,7.55
2019-05-23T01:49:46.967Z,7.90
2019-05-23T01:52:16.540Z,6.75
2019-05-23T01:54:45.060Z,6.35
2019-05-23T01:57:14.364Z,6.85
2019-05-23T01:59:43.150Z,8.18
2019-05-23T02:02:13.288Z,7.60
2019-05-23T02:04:42.667Z,7.15
2019-05-23T02:07:11.563Z,8.40
2019-05-23T02:09:40.864Z,10.03
2019-05-23T02:12:11.100Z,7.45
2019-05-23T02:14:42.556Z,8.48
2019-05-23T02:17:12.952Z,8.58
2019-05-23T02:19:41.876Z,8.48
2019-05-23T02:22:12.584Z,8.98
2019-05-23T02:24:42.442Z,8.85
2019-05-23T02:27:11.932Z,9.98
2019-05-23T02:29:42.881Z,8.00
2019-05-23T02:32:11.831Z,8.55
2019-05-23T02:34:41.660Z,8.13
2019-05-23T02:37:14.981Z,9.20
2019-05-23T02:39:51.230Z,10.58
2019-05-23T02:42:31.567Z,8.08
2019-05-23T02:45:00.789Z,9.18
2019-05-23T02:47:33.599Z,8.18
2019-05-23T02:50:02.480Z,9.80
2019-05-23T02:52:44.142Z,9.58
2019-05-23T02:55:16.017Z,8.38
2019-05-23T02:57:46.920Z,9.25
2019-05-23T03:00:27.206Z,10.25
2019-05-23T03:03:00.488Z,9.55
2019-05-23T03:05:31.516Z,10.08
2019-05-23T03:08:00.876Z,12.43
2019-05-23T03:10:32.832Z,10.03
2019-05-23T03:13:01.929Z,10.78
2019-05-23T03:15:33.661Z,8.23
2019-05-23T03:18:03.701Z,11.00
2019-05-23T03:20:34.387Z,9.60
2019-05-23T03:23:06.059Z,9.10
2019-05-23T03:25:39.642Z,10.03
2019-05-23T03:28:09.701Z,8.35
2019-05-23T03:30:40.045Z,12.10
2019-05-23T03:33:13.077Z,12.75
2019-05-23T03:36:00.297Z,10.00
2019-05-23T03:38:28.721Z,11.50
2019-05-23T03:40:57.191Z,11.30
2019-05-23T03:43:26.971Z,12.37
2019-05-23T03:46:07.649Z,9.38
2019-05-23T03:48:37.812Z,13.20
2019-05-23T03:51:09.028Z,13.00
2019-05-23T03:53:40.048Z,12.75
2019-05-23T03:56:10.263Z,9.85
2019-05-23T03:58:40.820Z,10.72
2019-05-23T04:01:11.356Z,10.50
2019-05-23T04:03:40.676Z,12.25
2019-05-23T04:06:09.827Z,9.45
2019-05-23T04:08:38.343Z,9.83
2019-05-23T04:11:07.439Z,9.50
2019-05-23T04:13:35.982Z,11.12
2019-05-23T04:16:04.561Z,8.70
2019-05-23T04:18:33.534Z,8.75
2019-05-23T04:21:02.075Z,10.13
2019-05-23T04:23:30.562Z,7.85
2019-05-23T04:25:59.658Z,8.55
2019-05-23T04:28:28.821Z,8.08
2019-05-23T04:30:57.822Z,8.05
2019-05-23T04:33:26.861Z,7.00
2019-05-23T04:35:56.633Z,5.80
2019-05-23T04:38:26.343Z,8.33
2019-05-23T04:40:56.078Z,9.15
2019-05-23T04:43:24.827Z,9.63
2019-05-23T04:45:53.393Z,7.60
2019-05-23T04:48:22.020Z,8.40
2019-05-23T04:50:50.888Z,10.03
2019-05-23T04:53:19.665Z,9.45
2019-05-23T04:55:48.550Z,11.20
2019-05-23T04:58:17.086Z,9.50
2019-05-23T05:00:45.944Z,12.25
2019-05-23T05:03:18.363Z,8.60
2019-05-23T05:05:47.190Z,12.53
2019-05-23T05:08:15.813Z,11.15
2019-05-23T05:10:45.072Z,13.13
2019-05-23T05:13:13.868Z,12.65
2019-05-23T05:15:42.586Z,13.22
2019-05-23T05:18:11.447Z,14.00
2019-05-23T05:20:40.766Z,15.95
2019-05-23T05:23:09.192Z,22.77
2019-05-23T05:25:37.895Z,18.80
2019-05-23T05:28:06.865Z,18.07
2019-05-23T05:30:35.425Z,21.00
2019-05-23T05:33:04.897Z,26.75
2019-05-23T05:35:33.421Z,22.00
2019-05-23T05:38:01.899Z,24.27
2019-05-23T05:40:31.163Z,23.47
2019-05-23T05:43:00.074Z,23.57
2019-05-23T05:45:29.262Z,21.93
2019-05-23T05:47:57.782Z,23.83
2019-05-23T05:50:26.293Z,24.47
2019-05-23T05:52:55.209Z,25.45
2019-05-23T05:55:24.095Z,24.07
2019-05-23T05:57:52.541Z,25.25
2019-05-23T06:00:29.098Z,28.32
2019-05-23T06:03:04.954Z,26.75
2019-05-23T06:05:47.031Z,31.48
2019-05-23T06:08:16.777Z,29.70
2019-05-23T06:10:45.802Z,29.07
2019-05-23T06:13:15.194Z,33.53
2019-05-23T06:15:44.590Z,33.70
2019-05-23T06:18:14.112Z,31.55
2019-05-23T06:20:45.066Z,31.15
2019-05-23T06:23:13.633Z,29.70
2019-05-23T06:25:42.072Z,30.92
2019-05-23T06:28:11.660Z,30.80
2019-05-23T06:30:42.162Z,28.62
2019-05-23T06:33:22.461Z,31.85
2019-05-23T06:35:41.262Z,27.82
2019-05-23T06:38:10.933Z,28.90
2019-05-23T06:40:40.142Z,26.70
2019-05-23T06:43:09.585Z,24.52
2019-05-23T06:45:40.495Z,28.70
2019-05-23T06:48:09.125Z,25.37
2019-05-23T06:50:37.643Z,22.48
2019-05-23T06:53:07.299Z,23.95
2019-05-23T06:55:36.183Z,23.25
2019-05-23T06:58:05.685Z,24.40
2019-05-23T07:00:34.640Z,27.27
2019-05-23T07:03:03.217Z,22.35
2019-05-23T07:05:34.763Z,24.47
2019-05-23T07:08:04.548Z,23.18
2019-05-23T07:10:33.546Z,22.95
2019-05-23T07:13:02.693Z,23.10
2019-05-23T07:15:31.622Z,22.85
2019-05-23T07:18:01.795Z,22.52
2019-05-23T07:20:31.164Z,21.95
2019-05-23T07:22:59.926Z,22.60
2019-05-23T07:25:28.765Z,21.20
2019-05-23T07:27:57.762Z,21.02
2019-05-23T07:30:27.156Z,19.95
2019-05-23T07:32:55.990Z,19.62
2019-05-23T07:35:24.529Z,19.55
2019-05-23T07:37:53.053Z,19.02
2019-05-23T07:40:23.526Z,21.07
2019-05-23T07:42:52.532Z,20.10
2019-05-23T07:45:22.777Z,19.35
2019-05-23T07:47:51.491Z,18.65
2019-05-23T07:50:20.305Z,17.42
2019-05-23T07:52:49.171Z,19.65
2019-05-23T07:55:19.532Z,18.40
2019-05-23T07:57:48.266Z,16.67
2019-05-23T08:00:25.301Z,18.70
2019-05-23T08:02:56.433Z,17.73
2019-05-23T08:05:25.198Z,18.92
2019-05-23T08:07:54.208Z,18.48
2019-05-23T08:10:33.129Z,19.67
2019-05-23T08:12:53.206Z,17.37
2019-05-23T08:15:22.182Z,21.15
2019-05-23T08:17:51.584Z,18.05
2019-05-23T08:20:20.366Z,17.32
2019-05-23T08:22:48.810Z,15.35
2019-05-23T08:25:17.478Z,18.10
2019-05-23T08:27:46.174Z,16.23
2019-05-23T08:30:16.512Z,16.32
2019-05-23T08:32:45.884Z,15.08
2019-05-23T08:35:17.816Z,15.23
2019-05-23T08:37:46.188Z,15.03
2019-05-23T08:40:19.102Z,15.05
2019-05-23T08:42:48.358Z,17.05
2019-05-23T08:45:18.922Z,18.75
2019-05-23T08:47:47.443Z,15.20
2019-05-23T08:50:18.763Z,16.75
2019-05-23T08:52:47.409Z,14.87
2019-05-23T08:55:23.882Z,13.95
2019-05-23T08:57:56.890Z,16.45
2019-05-23T09:00:27.505Z,15.05
2019-05-23T09:02:58.828Z,14.38
2019-05-23T09:05:32.530Z,13.10
2019-05-23T09:08:01.958Z,16.17
2019-05-23T09:10:31.367Z,13.98
2019-05-23T09:12:59.997Z,13.50
2019-05-23T09:15:28.600Z,14.07
2019-05-23T09:17:57.107Z,16.70
2019-05-23T09:20:26.056Z,14.40
2019-05-23T09:22:54.945Z,15.28
2019-05-23T09:25:23.710Z,16.42
2019-05-23T09:27:53.484Z,16.20
2019-05-23T09:30:23.180Z,14.03
2019-05-23T09:32:51.903Z,12.82
2019-05-23T09:35:22.311Z,13.08
2019-05-23T09:37:51.110Z,16.00
2019-05-23T09:40:19.910Z,14.15
2019-05-23T09:42:49.007Z,15.43
2019-05-23T09:45:18.294Z,16.82
2019-05-23T09:47:51.026Z,14.65
2019-05-23T09:50:19.837Z,13.38
2019-05-23T09:52:48.294Z,12.03
2019-05-23T09:55:17.383Z,15.03
2019-05-23T09:57:45.918Z,12.85
2019-05-23T10:00:17.794Z,10.65
2019-05-23T10:02:46.254Z,12.60
2019-05-23T10:05:15.550Z,11.30
2019-05-23T10:07:44.666Z,10.78
2019-05-23T10:10:16.991Z,9.73
2019-05-23T10:12:45.754Z,10.23
2019-05-23T10:15:26.259Z,11.35
2019-05-23T10:17:55.303Z,11.93
2019-05-23T10:20:27.375Z,9.73
2019-05-23T10:22:56.256Z,11.08
2019-05-23T10:25:24.789Z,11.22
2019-05-23T10:27:55.753Z,10.90
2019-05-23T10:30:24.044Z,10.08
2019-05-23T10:32:52.833Z,11.08
2019-05-23T10:35:21.321Z,10.63
2019-05-23T10:37:50.204Z,9.83
2019-05-23T10:40:20.017Z,10.60
2019-05-23T10:42:49.003Z,8.65
2019-05-23T10:45:17.770Z,10.95
2019-05-23T10:47:46.290Z,12.68
2019-05-23T10:50:15.396Z,12.25
2019-05-23T10:52:43.860Z,12.07
2019-05-23T10:55:12.844Z,13.75
2019-05-23T10:57:41.641Z,10.68
2019-05-23T11:00:13.301Z,13.50
2019-05-23T11:02:43.661Z,10.15
2019-05-23T11:05:14.102Z,9.78
2019-05-23T11:07:44.162Z,10.98
2019-05-23T11:10:12.962Z,9.83
2019-05-23T11:12:42.039Z,10.20
2019-05-23T11:15:11.436Z,12.43
2019-05-23T11:17:40.227Z,11.05
2019-05-23T11:20:11.175Z,8.90
2019-05-23T11:22:40.048Z,10.72
2019-05-23T11:25:10.376Z,9.53
2019-05-23T11:27:39.241Z,10.60
2019-05-23T11:30:13.599Z,8.38
2019-05-23T11:32:42.383Z,9.65
2019-05-23T11:35:11.776Z,9.73
2019-05-23T11:37:42.073Z,10.43
2019-05-23T11:40:11.190Z,10.58
2019-05-23T11:42:39.724Z,9.00
2019-05-23T11:45:08.602Z,8.45
2019-05-23T11:47:37.708Z,10.60
2019-05-23T11:50:08.532Z,9.35
2019-05-23T11:52:37.604Z,13.95
2019-05-23T11:55:07.558Z,10.43
2019-05-23T11:57:37.724Z,10.98
2019-05-23T12:00:11.070Z,8.55
2019-05-23T12:02:44.125Z,8.90
2019-05-23T12:05:14.704Z,7.53
2019-05-23T12:07:43.246Z,8.88
2019-05-23T12:10:12.399Z,7.30
2019-05-23T12:12:40.850Z,8.83
2019-05-23T12:15:13.324Z,24.77
2019-05-23T12:17:42.877Z,39.25
2019-05-23T12:20:13.016Z,7.80
2019-05-23T12:22:42.124Z,8.23
2019-05-23T12:25:21.830Z,7.03
2019-05-23T12:27:43.177Z,7.55
2019-05-23T12:30:14.419Z,8.83
2019-05-23T12:32:42.937Z,7.42
2019-05-23T12:35:12.272Z,7.65
2019-05-23T12:37:41.113Z,9.35
2019-05-23T12:40:11.653Z,7.45
2019-05-23T12:42:40.176Z,11.35
2019-05-23T12:45:10.827Z,7.75
2019-05-23T12:47:46.923Z,8.73
2019-05-23T12:50:17.434Z,6.90
2019-05-23T12:52:45.892Z,8.00
2019-05-23T12:55:14.466Z,8.48
2019-05-23T12:57:43.219Z,8.45
2019-05-23T13:00:14.087Z,7.47
2019-05-23T13:02:42.527Z,8.25
2019-05-23T13:05:12.367Z,9.00
2019-05-23T13:07:40.798Z,6.90
2019-05-23T13:10:09.893Z,7.33
2019-05-23T13:12:38.867Z,10.30
2019-05-23T13:15:08.421Z,7.75
2019-05-23T13:17:37.115Z,7.75
2019-05-23T13:20:08.093Z,7.10
2019-05-23T13:22:36.589Z,8.38
2019-05-23T13:25:08.439Z,6.35
2019-05-23T13:27:37.898Z,7.70
2019-05-23T13:30:07.942Z,7.87
2019-05-23T13:32:36.916Z,8.70
2019-05-23T13:35:07.253Z,7.60
2019-05-23T13:37:50.435Z,7.28
2019-05-23T13:40:07.175Z,9.18
2019-05-23T13:42:35.841Z,7.40
2019-05-23T13:45:06.717Z,6.75
2019-05-23T13:47:35.433Z,6.75
2019-05-23T13:50:06.100Z,5.67
2019-05-23T13:52:34.553Z,7.45
2019-05-23T13:55:04.597Z,5.95
2019-05-23T13:57:33.131Z,6.22
2019-05-23T14:00:01.672Z,6.05
2019-05-23T14:02:31.661Z,7.65
2019-05-23T14:05:00.434Z,6.00
2019-05-23T14:07:28.941Z,5.12
2019-05-23T14:09:57.471Z,6.85
2019-05-23T14:12:27.433Z,5.42
2019-05-23T14:14:55.888Z,9.20
2019-05-23T14:17:25.966Z,8.05
2019-05-23T14:19:54.462Z,4.83
2019-05-23T14:22:23.244Z,7.72
2019-05-23T14:24:51.914Z,5.42
2019-05-23T14:27:22.015Z,8.80
2019-05-23T14:29:50.462Z,9.70
2019-05-23T14:32:20.633Z,8.13
2019-05-23T14:34:49.066Z,5.83
2019-05-23T14:37:19.412Z,7.08
2019-05-23T14:39:48.414Z,10.30
2019-05-23T14:42:19.213Z,6.30
2019-05-23T14:44:48.078Z,9.65
2019-05-23T14:47:18.331Z,5.35
2019-05-23T14:49:48.495Z,7.95
2019-05-23T14:52:18.885Z,6.53
2019-05-23T14:54:49.225Z,5.75
2019-05-23T14:57:18.238Z,6.22
2019-05-23T14:59:46.770Z,5.92
2019-05-23T15:02:16.290Z,6.33
2019-05-23T15:04:44.740Z,7.17
2019-05-23T15:07:13.598Z,7.92
2019-05-23T15:09:42.061Z,5.75
2019-05-23T15:12:10.997Z,5.78
2019-05-23T15:14:40.182Z,44.45
2019-05-23T15:17:09.168Z,8.20
2019-05-23T15:19:44.196Z,10.95
2019-05-23T15:22:07.856Z,6.55
2019-05-23T15:24:36.566Z,7.15
2019-05-23T15:27:05.190Z,8.40
2019-05-23T15:29:33.878Z,7.97
2019-05-23T15:32:03.321Z,6.25
2019-05-23T15:34:34.931Z,7.70
2019-05-23T15:37:02.434Z,8.00
2019-05-23T15:39:31.301Z,16.17
2019-05-23T15:41:59.760Z,12.55
2019-05-23T15:44:29.934Z,9.35
2019-05-23T15:46:58.432Z,6.75
2019-05-23T15:49:27.363Z,8.20
2019-05-23T15:52:12.429Z,6.87
2019-05-23T15:57:28.102Z,7.40
2019-05-23T16:00:01.418Z,10.28
2019-05-23T16:02:31.591Z,8.15
2019-05-23T16:05:00.777Z,6.90
2019-05-23T16:07:30.394Z,8.43
2019-05-23T16:09:58.937Z,8.28
2019-05-23T16:12:27.540Z,7.95
2019-05-23T16:14:56.121Z,7.05
2019-05-23T16:17:24.584Z,6.72
2019-05-23T16:19:53.349Z,9.05
2019-05-23T16:22:21.980Z,9.50
2019-05-23T16:24:50.414Z,5.83
2019-05-23T16:27:19.178Z,7.55
2019-05-23T16:29:47.676Z,6.12
2019-05-23T16:32:16.383Z,7.53
2019-05-23T16:34:44.901Z,7.67
2019-05-23T16:37:13.670Z,7.30
2019-05-23T16:39:47.851Z,6.95
2019-05-23T16:42:13.623Z,7.35
2019-05-23T16:44:42.237Z,6.53
2019-05-23T16:47:11.162Z,6.65
2019-05-23T16:49:39.669Z,9.43
2019-05-23T16:52:08.174Z,8.48
2019-05-23T16:54:38.637Z,7.30
2019-05-23T16:57:27.166Z,6.53
2019-05-23T16:59:57.344Z,6.62
2019-05-23T17:02:30.301Z,7.08
2019-05-23T17:05:10.462Z,7.12
2019-05-23T17:07:38.299Z,6.15
2019-05-23T17:10:09.749Z,6.45
2019-05-23T17:12:46.149Z,6.10
2019-05-23T17:15:16.490Z,7.45
2019-05-23T17:18:01.215Z,6.55
2019-05-23T17:20:21.487Z,7.17
2019-05-23T17:22:54.610Z,9.80
2019-05-23T17:25:39.714Z,12.85
2019-05-23T17:30:42.240Z,7.45
2019-05-23T17:33:11.084Z,7.97
2019-05-23T17:35:40.239Z,6.85
2019-05-23T17:38:08.829Z,9.95
2019-05-23T17:40:37.759Z,8.63
2019-05-23T17:43:06.263Z,8.60
2019-05-23T17:45:34.787Z,8.05
2019-05-23T17:48:03.666Z,9.48
2019-05-23T17:50:47.505Z,8.13
2019-05-23T17:53:16.246Z,10.40
2019-05-23T17:55:46.129Z,8.28
2019-05-23T17:58:16.115Z,7.85
2019-05-23T18:00:46.109Z,7.45
2019-05-23T18:03:15.158Z,6.40
2019-05-23T18:05:44.074Z,8.20
2019-05-23T18:08:12.790Z,6.37
2019-05-23T18:10:45.075Z,9.83
2019-05-23T18:13:12.487Z,12.85
2019-05-23T18:15:42.203Z,13.22
2019-05-23T18:18:11.092Z,15.55
2019-05-23T18:20:41.589Z,15.48
2019-05-23T18:23:11.084Z,17.57
2019-05-23T18:25:40.015Z,16.62
2019-05-23T18:28:09.671Z,11.43
2019-05-23T18:30:55.643Z,15.18
2019-05-23T18:33:25.537Z,14.65
2019-05-23T18:35:55.757Z,10.98
2019-05-23T18:38:24.698Z,11.18
2019-05-23T18:41:02.335Z,7.58
2019-05-23T18:43:24.988Z,10.28
2019-05-23T18:45:55.078Z,9.95
2019-05-23T18:48:24.933Z,9.35
2019-05-23T18:50:53.724Z,10.38
2019-05-23T18:53:22.663Z,8.75
2019-05-23T18:55:51.462Z,8.30
2019-05-23T18:58:20.483Z,8.45
2019-05-23T19:00:56.726Z,10.43
2019-05-23T19:03:25.216Z,7.95
2019-05-23T19:05:53.793Z,9.30
2019-05-23T19:08:23.435Z,8.30
2019-05-23T19:10:52.715Z,8.85
2019-05-23T19:13:21.240Z,9.53
2019-05-23T19:15:49.847Z,8.63
2019-05-23T19:18:19.073Z,9.93
2019-05-23T19:20:48.273Z,10.18
2019-05-23T19:23:17.000Z,10.08
2019-05-23T19:25:46.668Z,13.53
2019-05-23T19:28:15.664Z,9.28
2019-05-23T19:30:44.927Z,8.50
2019-05-23T19:33:13.941Z,8.85
2019-05-23T19:35:42.467Z,9.73
2019-05-23T19:38:12.349Z,8.68
2019-05-23T19:40:41.942Z,10.15
2019-05-23T19:43:10.470Z,10.05
2019-05-23T19:45:39.334Z,11.18
2019-05-23T19:48:08.014Z,9.58
2019-05-23T19:50:38.531Z,8.80
2019-05-23T19:53:07.338Z,8.33
2019-05-23T19:55:39.599Z,10.45
2019-05-23T19:58:08.024Z,9.53
2019-05-23T20:00:36.732Z,10.38
2019-05-23T20:03:05.721Z,9.43
2019-05-23T20:05:44.917Z,9.43
2019-05-23T20:08:13.563Z,9.85
2019-05-23T20:10:42.080Z,9.00
2019-05-23T20:13:10.522Z,9.50
2019-05-23T20:15:39.389Z,8.30
2019-05-23T20:18:08.465Z,9.40
2019-05-23T20:20:39.190Z,8.48
2019-05-23T20:23:09.653Z,9.40
2019-05-23T20:25:38.688Z,9.40
2019-05-23T20:28:07.497Z,8.40
2019-05-23T20:30:47.759Z,7.28
2019-05-23T20:33:16.304Z,9.15
2019-05-23T20:35:44.862Z,7.55
2019-05-23T20:38:13.656Z,9.08
2019-05-23T20:40:42.265Z,7.85
2019-05-23T20:43:11.280Z,8.45
2019-05-23T20:45:40.258Z,9.13
2019-05-23T20:48:09.363Z,6.70
2019-05-23T20:50:38.244Z,7.67
2019-05-23T20:53:06.834Z,11.18
2019-05-23T20:55:35.636Z,8.00
2019-05-23T20:58:05.371Z,8.75
2019-05-23T21:00:36.066Z,8.78
2019-05-23T21:03:05.728Z,7.30
2019-05-23T21:05:34.798Z,8.08
2019-05-23T21:08:03.875Z,11.33
2019-05-23T21:10:44.334Z,8.45
2019-05-23T21:13:12.939Z,7.53
2019-05-23T21:15:41.720Z,7.10
2019-05-23T21:18:10.170Z,8.95
2019-05-23T21:20:39.148Z,6.75
2019-05-23T21:23:07.725Z,9.13
2019-05-23T21:25:38.200Z,7.85
2019-05-23T21:28:06.636Z,7.58
2019-05-23T21:30:35.229Z,6.70
2019-05-23T21:33:04.378Z,7.08
2019-05-23T21:35:33.346Z,9.53
2019-05-23T21:38:01.783Z,6.80
2019-05-23T21:40:33.392Z,7.40
2019-05-23T21:43:02.164Z,7.78
2019-05-23T21:45:30.660Z,7.87
2019-05-23T21:47:59.434Z,6.95
2019-05-23T21:50:28.317Z,7.00
2019-05-23T21:52:56.913Z,7.45
2019-05-23T21:55:40.539Z,8.23
2019-05-23T21:58:11.145Z,7.65
2019-05-23T22:01:08.375Z,6.83
2019-05-23T22:03:43.104Z,8.10
2019-05-23T22:06:14.416Z,7.40
2019-05-23T22:08:44.421Z,7.28
2019-05-23T22:11:13.332Z,9.58
2019-05-23T22:13:41.833Z,7.90
2019-05-23T22:16:10.497Z,6.55
2019-05-23T22:18:39.266Z,8.80
2019-05-23T22:21:08.050Z,8.08
2019-05-23T22:23:37.708Z,7.22
2019-05-23T22:26:07.062Z,7.42
2019-05-23T22:28:35.850Z,8.70
2019-05-23T22:31:04.282Z,6.95
2019-05-23T22:33:34.971Z,8.38
2019-05-23T22:36:03.419Z,9.20
2019-05-23T22:38:32.126Z,6.85
2019-05-23T22:41:00.578Z,6.72
2019-05-23T22:43:29.022Z,7.75
2019-05-23T22:45:57.512Z,6.78
2019-05-23T22:48:26.254Z,8.08
2019-05-23T22:50:55.042Z,7.25
2019-05-23T22:53:23.722Z,8.58
2019-05-23T22:55:52.537Z,7.85
2019-05-23T22:58:21.048Z,8.38
2019-05-23T23:00:50.508Z,8.10
2019-05-23T23:03:18.987Z,6.87
2019-05-23T23:05:47.416Z,6.92
2019-05-23T23:08:16.729Z,6.62
2019-05-23T23:10:45.227Z,8.33
2019-05-23T23:13:14.314Z,6.25
2019-05-23T23:15:43.250Z,7.42
2019-05-23T23:18:12.128Z,6.97
2019-05-23T23:20:40.926Z,6.83
2019-05-23T23:23:09.420Z,7.33
2019-05-23T23:25:37.880Z,5.95
2019-05-23T23:28:06.390Z,7.28
2019-05-23T23:30:43.039Z,8.03
2019-05-23T23:33:11.478Z,9.75
2019-05-23T23:35:40.209Z,7.03
2019-05-23T23:38:08.918Z,6.90
2019-05-23T23:40:37.675Z,8.43
2019-05-23T23:43:06.493Z,7.80
2019-05-23T23:45:52.849Z,7.05
2019-05-23T23:48:39.306Z,6.72
2019-05-23T23:51:25.607Z,6.80
2019-05-23T23:54:12.224Z,7.55
2019-05-23T23:56:58.583Z,6.42
2019-05-23T23:59:26.326Z,5.37
